createdAt,value
2022-09-23T00:01:31.763Z,68.06
2022-09-23T00:04:11.900Z,68.03
2022-09-23T00:06:44.457Z,68.34
2022-09-23T00:09:19.392Z,68.50
2022-09-23T00:11:51.742Z,68.56
2022-09-23T00:14:21.927Z,68.76
2022-09-23T00:17:01.971Z,68.75
2022-09-23T00:19:31.754Z,68.66
2022-09-23T00:22:01.185Z,68.72
2022-09-23T00:24:36.748Z,68.74
2022-09-23T00:27:26.395Z,68.70
2022-09-23T00:30:04.339Z,68.85
2022-09-23T00:32:40.534Z,68.92
2022-09-23T00:35:15.742Z,69.07
2022-09-23T00:37:46.443Z,69.06
2022-09-23T00:40:21.372Z,69.00
2022-09-23T00:43:07.000Z,69.17
2022-09-23T00:45:48.892Z,69.07
2022-09-23T00:48:21.205Z,69.09
2022-09-23T00:50:57.701Z,69.05
2022-09-23T00:53:30.769Z,69.12
2022-09-23T00:56:14.447Z,69.32
2022-09-23T00:58:57.442Z,69.16
2022-09-23T01:01:27.763Z,69.18
2022-09-23T01:04:06.060Z,69.35
2022-09-23T01:06:44.490Z,69.29
2022-09-23T01:09:16.826Z,69.42
2022-09-23T01:12:20.802Z,69.38
2022-09-23T01:15:20.267Z,69.52
2022-09-23T01:18:35.773Z,69.49
2022-09-23T01:21:31.937Z,69.53
2022-09-23T01:24:47.927Z,69.64
2022-09-23T01:27:34.624Z,69.67
2022-09-23T01:30:37.596Z,69.68
2022-09-23T01:33:30.812Z,69.91
2022-09-23T01:36:37.286Z,69.76
2022-09-23T01:39:56.074Z,69.81
2022-09-23T01:42:42.004Z,69.79
2022-09-23T01:45:51.775Z,69.77
2022-09-23T01:48:50.028Z,69.92
2022-09-23T01:51:43.100Z,69.90
2022-09-23T01:54:39.043Z,69.91
2022-09-23T01:57:23.880Z,69.93
2022-09-23T02:00:04.634Z,69.90
2022-09-23T02:02:59.615Z,69.94
2022-09-23T02:05:48.089Z,70.02
2022-09-23T02:08:32.322Z,69.99
2022-09-23T02:11:15.517Z,70.15
2022-09-23T02:14:03.766Z,70.22
2022-09-23T02:16:56.119Z,70.15
2022-09-23T02:20:16.063Z,70.18
2022-09-23T02:23:04.433Z,70.35
2022-09-23T02:26:09.068Z,70.15
2022-09-23T02:29:05.606Z,70.01
2022-09-23T02:31:54.711Z,70.11
2022-09-23T02:35:19.431Z,70.12
2022-09-23T02:38:30.749Z,70.20
2022-09-23T02:41:45.642Z,70.27
2022-09-23T02:44:23.106Z,70.31
2022-09-23T02:47:04.852Z,70.44
2022-09-23T02:49:36.723Z,70.32
2022-09-23T02:52:08.896Z,70.47
2022-09-23T02:54:44.175Z,70.33
2022-09-23T02:57:20.363Z,70.42
2022-09-23T02:59:59.616Z,70.50
2022-09-23T03:03:06.426Z,70.48
2022-09-23T03:05:56.043Z,70.36
2022-09-23T03:08:59.932Z,70.41
2022-09-23T03:11:32.885Z,70.68
2022-09-23T03:14:40.811Z,70.75
2022-09-23T03:17:26.081Z,70.67
2022-09-23T03:20:20.479Z,70.73
2022-09-23T03:23:00.972Z,70.79
2022-09-23T03:25:37.575Z,70.69
2022-09-23T03:28:13.670Z,70.81
2022-09-23T03:30:52.844Z,71.02
2022-09-23T03:33:28.985Z,70.99
2022-09-23T03:36:29.584Z,70.85
2022-09-23T03:39:19.867Z,70.94
2022-09-23T03:41:53.171Z,70.73
2022-09-23T03:44:23.794Z,70.80
2022-09-23T03:47:01.262Z,70.82
2022-09-23T03:49:44.904Z,70.89
2022-09-23T03:52:20.006Z,70.80
2022-09-23T03:54:58.968Z,70.83
2022-09-23T03:57:37.504Z,70.84
2022-09-23T04:00:13.857Z,70.91
2022-09-23T04:02:49.128Z,70.96
2022-09-23T04:05:22.293Z,70.81
2022-09-23T04:07:53.831Z,70.91
2022-09-23T04:10:28.466Z,70.90
2022-09-23T04:13:04.793Z,71.08
2022-09-23T04:15:43.214Z,71.15
2022-09-23T04:18:29.928Z,71.24
2022-09-23T04:21:32.628Z,71.29
2022-09-23T04:24:14.325Z,71.26
2022-09-23T04:26:53.659Z,71.28
2022-09-23T04:29:41.029Z,71.30
2022-09-23T04:32:21.048Z,71.33
2022-09-23T04:34:55.523Z,71.38
2022-09-23T04:37:32.902Z,71.33
2022-09-23T04:40:11.432Z,71.20
2022-09-23T04:42:50.113Z,71.13
2022-09-23T04:45:30.750Z,71.28
2022-09-23T04:48:13.588Z,71.19
2022-09-23T04:51:28.834Z,71.32
2022-09-23T04:54:02.971Z,71.40
2022-09-23T04:56:37.734Z,71.41
2022-09-23T04:59:12.091Z,71.22
2022-09-23T05:01:44.423Z,71.16
2022-09-23T05:04:18.810Z,71.30
2022-09-23T05:07:03.275Z,71.38
2022-09-23T05:09:44.363Z,71.40
2022-09-23T05:12:26.086Z,71.51
2022-09-23T05:15:00.012Z,71.66
2022-09-23T05:17:31.867Z,71.59
2022-09-23T05:20:09.696Z,71.57
2022-09-23T05:22:51.680Z,71.72
2022-09-23T05:26:09.373Z,71.83
2022-09-23T05:28:58.739Z,71.98
2022-09-23T05:31:38.834Z,71.99
2022-09-23T05:34:12.545Z,71.95
2022-09-23T05:36:41.632Z,72.15
2022-09-23T05:39:17.435Z,71.92
2022-09-23T05:44:48.699Z,72.38
2022-09-23T05:47:23.831Z,72.39
2022-09-23T05:50:05.276Z,72.32
2022-09-23T05:52:57.820Z,72.36
2022-09-23T05:55:46.641Z,72.23
2022-09-23T05:58:45.990Z,72.28
2022-09-23T06:01:26.250Z,72.62
2022-09-23T06:04:06.405Z,72.53
2022-09-23T06:06:51.908Z,72.43
2022-09-23T06:09:36.803Z,72.47
2022-09-23T06:12:49.693Z,72.52
2022-09-23T06:15:40.051Z,72.65
2022-09-23T06:18:25.687Z,72.68
2022-09-23T06:21:09.608Z,72.62
2022-09-23T06:27:23.043Z,72.50
2022-09-23T06:30:07.121Z,72.47
2022-09-23T06:32:39.872Z,72.80
2022-09-23T06:35:25.616Z,73.09
2022-09-23T06:38:10.296Z,73.91
2022-09-23T06:40:50.698Z,74.20
2022-09-23T06:43:23.126Z,73.60
2022-09-23T06:46:11.360Z,73.44
2022-09-23T06:48:56.414Z,72.40
2022-09-23T06:51:31.156Z,71.06
2022-09-23T06:54:11.433Z,69.97
2022-09-23T06:57:00.358Z,68.43
2022-09-23T06:59:34.688Z,65.93
2022-09-23T07:02:16.098Z,64.45
2022-09-23T07:05:01.551Z,64.01
2022-09-23T07:07:41.819Z,64.24
2022-09-23T07:10:20.266Z,63.34
2022-09-23T07:12:53.730Z,62.21
2022-09-23T07:15:36.504Z,62.03
2022-09-23T07:18:10.717Z,61.22
2022-09-23T07:20:40.834Z,59.79
2022-09-23T07:23:21.015Z,59.10
2022-09-23T07:26:04.389Z,59.18
2022-09-23T07:28:35.515Z,58.66
2022-09-23T07:31:33.318Z,57.11
2022-09-23T07:34:14.159Z,56.53
2022-09-23T07:36:55.694Z,55.92
2022-09-23T07:39:49.735Z,55.48
2022-09-23T07:42:33.079Z,54.66
2022-09-23T07:45:04.294Z,54.55
2022-09-23T07:47:45.833Z,53.23
2022-09-23T07:50:28.940Z,51.93
2022-09-23T07:53:15.884Z,52.39
2022-09-23T07:56:00.261Z,52.03
2022-09-23T07:59:22.828Z,51.47
2022-09-23T08:02:05.029Z,51.16
2022-09-23T08:05:07.803Z,50.53
2022-09-23T08:07:50.498Z,50.78
2022-09-23T08:10:33.204Z,49.96
2022-09-23T08:13:25.789Z,50.56
2022-09-23T08:16:06.626Z,50.93
2022-09-23T08:18:45.953Z,51.00
2022-09-23T08:21:36.141Z,50.25
2022-09-23T08:24:24.103Z,50.11
2022-09-23T08:27:02.422Z,48.98
2022-09-23T08:29:44.863Z,49.25
2022-09-23T08:32:24.721Z,50.26
2022-09-23T08:35:05.711Z,49.53
2022-09-23T08:37:48.888Z,48.80
2022-09-23T08:40:38.151Z,49.79
2022-09-23T08:43:47.054Z,50.59
2022-09-23T08:46:49.724Z,50.44
2022-09-23T08:50:03.761Z,50.30
2022-09-23T08:53:05.298Z,49.94
2022-09-23T08:56:01.400Z,50.04
2022-09-23T08:59:04.031Z,50.25
2022-09-23T09:02:15.169Z,51.03
2022-09-23T09:05:21.104Z,51.64
2022-09-23T09:08:11.566Z,50.80
2022-09-23T09:10:51.983Z,49.27
2022-09-23T09:13:45.884Z,49.28
2022-09-23T09:17:02.135Z,48.34
2022-09-23T09:20:21.948Z,47.62
2022-09-23T09:23:19.269Z,47.07
2022-09-23T09:26:21.795Z,46.68
2022-09-23T09:32:41.030Z,47.15
2022-09-23T09:35:45.398Z,47.95
2022-09-23T09:38:40.475Z,48.92
2022-09-23T09:41:45.912Z,48.26
2022-09-23T09:45:07.596Z,47.25
2022-09-23T09:48:35.618Z,47.39
2022-09-23T09:51:39.406Z,48.39
2022-09-23T09:54:32.393Z,48.30
2022-09-23T09:58:06.254Z,48.12
2022-09-23T10:01:00.929Z,47.43
2022-09-23T10:03:59.527Z,46.82
2022-09-23T10:06:38.179Z,45.77
2022-09-23T10:09:19.533Z,44.37
2022-09-23T10:12:28.680Z,42.97
2022-09-23T10:15:45.723Z,41.37
2022-09-23T10:18:47.919Z,41.17
2022-09-23T10:21:37.809Z,41.46
2022-09-23T10:24:41.550Z,41.07
2022-09-23T10:27:29.126Z,40.22
2022-09-23T10:30:31.017Z,39.73
2022-09-23T10:33:06.737Z,40.06
2022-09-23T10:36:09.907Z,39.73
2022-09-23T10:39:21.007Z,38.99
2022-09-23T10:42:29.359Z,38.08
2022-09-23T10:45:58.395Z,38.13
2022-09-23T10:49:11.776Z,38.24
2022-09-23T10:52:52.683Z,37.85
2022-09-23T10:56:04.101Z,37.12
2022-09-23T10:59:50.357Z,37.82
2022-09-23T11:03:11.149Z,38.59
2022-09-23T11:06:39.082Z,38.71
2022-09-23T11:09:49.028Z,39.57
2022-09-23T11:12:54.197Z,40.40
2022-09-23T11:19:33.579Z,41.53
2022-09-23T11:22:11.109Z,42.09
2022-09-23T11:25:23.568Z,42.51
2022-09-23T11:28:34.741Z,42.88
2022-09-23T11:32:01.107Z,43.43
2022-09-23T11:35:15.275Z,43.37
2022-09-23T11:38:02.556Z,43.47
2022-09-23T11:45:32.464Z,42.87
2022-09-23T11:48:42.948Z,43.10
2022-09-23T11:51:52.873Z,43.23
2022-09-23T11:54:44.593Z,43.32
2022-09-23T11:57:49.136Z,43.22
2022-09-23T12:00:40.556Z,42.24
2022-09-23T12:03:39.897Z,42.13
2022-09-23T12:06:34.801Z,42.05
2022-09-23T12:09:40.924Z,41.85
2022-09-23T12:12:43.379Z,41.44
2022-09-23T12:16:09.809Z,41.17
2022-09-23T12:19:21.279Z,40.87
2022-09-23T12:22:32.975Z,40.45
2022-09-23T12:29:15.825Z,40.55
2022-09-23T12:32:55.370Z,41.13
2022-09-23T12:36:49.716Z,41.59
2022-09-23T12:40:44.342Z,41.64
2022-09-23T12:44:54.231Z,41.57
2022-09-23T12:49:20.943Z,41.65
2022-09-23T12:52:37.761Z,41.76
2022-09-23T12:55:44.237Z,41.74
2022-09-23T12:59:06.269Z,41.70
2022-09-23T13:01:43.482Z,41.70
2022-09-23T13:05:44.161Z,41.60
2022-09-23T13:08:28.293Z,40.85
2022-09-23T13:11:29.511Z,41.21
2022-09-23T13:14:08.414Z,41.11
2022-09-23T13:16:48.379Z,40.84
2022-09-23T13:19:33.200Z,40.61
2022-09-23T13:23:08.746Z,40.52
2022-09-23T13:26:31.820Z,40.40
2022-09-23T13:29:54.170Z,40.66
2022-09-23T13:32:39.407Z,40.71
2022-09-23T13:35:31.897Z,40.83
2022-09-23T13:38:52.000Z,40.69
2022-09-23T13:42:11.978Z,40.28
2022-09-23T13:45:05.230Z,40.67
2022-09-23T13:47:39.552Z,40.85
2022-09-23T13:50:34.999Z,41.08
2022-09-23T13:53:33.559Z,41.09
2022-09-23T13:56:44.461Z,41.10
2022-09-23T13:59:30.269Z,40.93
2022-09-23T14:02:17.905Z,40.61
2022-09-23T14:04:54.323Z,40.57
2022-09-23T14:07:30.869Z,40.54
2022-09-23T14:10:18.855Z,40.77
2022-09-23T14:17:18.539Z,41.37
2022-09-23T14:19:53.945Z,41.62
2022-09-23T14:22:48.390Z,41.74
2022-09-23T14:25:22.323Z,41.74
2022-09-23T14:28:39.371Z,41.90
2022-09-23T14:31:13.796Z,41.88
2022-09-23T14:34:00.758Z,41.82
2022-09-23T14:37:05.974Z,41.54
2022-09-23T14:39:43.596Z,41.20
2022-09-23T14:42:32.592Z,40.90
2022-09-23T14:45:05.883Z,40.61
2022-09-23T14:47:48.610Z,40.61
2022-09-23T14:50:52.253Z,40.67
2022-09-23T14:53:38.513Z,40.97
2022-09-23T14:56:27.890Z,40.99
2022-09-23T14:59:32.663Z,40.78
2022-09-23T15:02:59.586Z,41.13
2022-09-23T15:05:49.402Z,41.42
2022-09-23T15:08:30.620Z,41.69
2022-09-23T15:11:09.899Z,41.85
2022-09-23T15:13:49.774Z,41.71
2022-09-23T15:16:35.087Z,41.67
2022-09-23T15:19:08.625Z,41.40
2022-09-23T15:21:55.226Z,41.46
2022-09-23T15:24:50.959Z,41.33
2022-09-23T15:27:45.124Z,41.23
2022-09-23T15:30:46.136Z,41.30
2022-09-23T15:33:51.786Z,41.64
2022-09-23T15:36:29.978Z,41.79
2022-09-23T15:39:35.489Z,41.82
2022-09-23T15:42:25.064Z,41.76
2022-09-23T15:45:04.406Z,41.72
2022-09-23T15:47:51.644Z,41.79
2022-09-23T15:50:25.180Z,41.72
2022-09-23T15:53:15.943Z,41.87
2022-09-23T15:55:54.704Z,42.08
2022-09-23T15:58:35.597Z,42.16
2022-09-23T16:01:37.051Z,42.28
2022-09-23T16:04:37.054Z,42.34
2022-09-23T16:07:23.080Z,42.43
2022-09-23T16:09:59.138Z,42.61
2022-09-23T16:12:50.674Z,43.03
2022-09-23T16:15:46.295Z,43.15
2022-09-23T16:18:19.700Z,43.37
2022-09-23T16:21:02.895Z,43.56
2022-09-23T16:23:51.961Z,43.84
2022-09-23T16:27:10.063Z,44.09
2022-09-23T16:29:50.017Z,44.47
2022-09-23T16:32:25.564Z,44.87
2022-09-23T16:35:02.637Z,45.14
2022-09-23T16:37:51.059Z,45.57
2022-09-23T16:40:25.943Z,46.12
2022-09-23T16:42:56.288Z,46.47
2022-09-23T16:45:28.062Z,46.90
2022-09-23T16:47:57.458Z,47.35
2022-09-23T16:50:39.391Z,47.97
2022-09-23T16:53:20.061Z,48.35
2022-09-23T16:56:13.998Z,48.73
2022-09-23T16:58:48.713Z,49.38
2022-09-23T17:01:45.040Z,49.73
2022-09-23T17:04:20.736Z,50.18
2022-09-23T17:07:13.048Z,50.61
2022-09-23T17:09:53.037Z,51.04
2022-09-23T17:12:39.871Z,51.50
2022-09-23T17:15:11.511Z,51.99
2022-09-23T17:17:49.987Z,52.61
2022-09-23T17:20:43.431Z,53.21
2022-09-23T17:23:21.146Z,53.60
2022-09-23T17:26:22.883Z,54.12
2022-09-23T17:29:04.221Z,54.56
2022-09-23T17:31:41.750Z,54.64
2022-09-23T17:34:25.798Z,55.06
2022-09-23T17:37:11.186Z,55.24
2022-09-23T17:39:55.730Z,55.76
2022-09-23T17:43:11.447Z,56.10
2022-09-23T17:45:44.335Z,56.43
2022-09-23T17:48:42.185Z,56.70
2022-09-23T17:51:28.578Z,57.02
2022-09-23T17:54:21.277Z,57.19
2022-09-23T17:57:19.324Z,57.50
2022-09-23T18:00:07.283Z,57.61
2022-09-23T18:03:15.683Z,57.67
2022-09-23T18:05:58.893Z,57.75
2022-09-23T18:09:15.352Z,57.93
2022-09-23T18:11:50.139Z,58.25
2022-09-23T18:14:37.911Z,58.36
2022-09-23T18:17:25.290Z,58.75
2022-09-23T18:20:16.129Z,58.91
2022-09-23T18:22:57.036Z,59.00
2022-09-23T18:25:41.864Z,59.32
2022-09-23T18:28:12.931Z,59.53
2022-09-23T18:31:20.796Z,59.71
2022-09-23T18:34:12.093Z,59.85
2022-09-23T18:37:06.345Z,59.87
2022-09-23T18:40:17.957Z,60.24
2022-09-23T18:43:48.867Z,60.43
2022-09-23T18:46:38.826Z,60.79
2022-09-23T18:49:51.985Z,60.84
2022-09-23T18:52:56.126Z,61.08
2022-09-23T18:55:53.790Z,61.48
2022-09-23T18:58:43.766Z,61.35
2022-09-23T19:01:25.075Z,61.58
2022-09-23T19:04:19.585Z,61.59
2022-09-23T19:06:51.355Z,61.56
2022-09-23T19:09:30.707Z,61.78
2022-09-23T19:12:27.977Z,61.74
2022-09-23T19:15:12.062Z,61.91
2022-09-23T19:17:50.053Z,62.09
2022-09-23T19:20:25.154Z,62.16
2022-09-23T19:23:42.991Z,62.42
2022-09-23T19:26:34.866Z,62.63
2022-09-23T19:29:19.951Z,62.97
2022-09-23T19:31:56.381Z,63.18
2022-09-23T19:34:39.457Z,63.16
2022-09-23T19:37:34.916Z,63.57
2022-09-23T19:40:10.031Z,63.68
2022-09-23T19:42:44.109Z,63.74
2022-09-23T19:45:23.275Z,63.82
2022-09-23T19:48:00.894Z,63.97
2022-09-23T19:50:34.922Z,63.93
2022-09-23T19:53:10.034Z,64.13
2022-09-23T19:55:55.717Z,64.15
2022-09-23T19:58:38.405Z,64.17
2022-09-23T20:01:09.571Z,64.27
2022-09-23T20:07:06.539Z,64.59
2022-09-23T20:09:48.036Z,64.85
2022-09-23T20:12:24.423Z,65.18
2022-09-23T20:14:53.853Z,65.24
2022-09-23T20:17:22.834Z,65.19
2022-09-23T20:20:28.898Z,65.32
2022-09-23T20:23:02.949Z,65.42
2022-09-23T20:26:05.021Z,65.58
2022-09-23T20:28:34.471Z,65.54
2022-09-23T20:31:05.307Z,65.83
2022-09-23T20:33:40.176Z,65.69
2022-09-23T20:36:13.801Z,65.79
2022-09-23T20:38:43.576Z,65.71
2022-09-23T20:41:23.384Z,65.95
2022-09-23T20:44:16.753Z,66.04
2022-09-23T20:47:02.253Z,65.93
2022-09-23T20:49:34.561Z,66.02
2022-09-23T20:52:22.028Z,66.23
2022-09-23T20:56:40.805Z,66.34
2022-09-23T20:58:03.406Z,66.47
2022-09-23T21:00:36.025Z,66.41
2022-09-23T21:03:07.927Z,66.40
2022-09-23T21:05:48.020Z,66.35
2022-09-23T21:08:25.070Z,66.35
2022-09-23T21:11:24.504Z,66.35
2022-09-23T21:13:55.274Z,66.41
2022-09-23T21:16:27.944Z,66.38
2022-09-23T21:19:11.423Z,66.71
2022-09-23T21:25:27.302Z,66.69
2022-09-23T21:28:18.294Z,66.54
2022-09-23T21:30:53.502Z,66.67
2022-09-23T21:33:27.994Z,66.57
2022-09-23T21:36:19.606Z,66.41
2022-09-23T21:39:01.937Z,66.40
2022-09-23T21:41:39.687Z,66.46
2022-09-23T21:44:20.698Z,66.53
2022-09-23T21:47:01.015Z,66.34
2022-09-23T21:49:48.477Z,66.24
2022-09-23T21:52:38.684Z,66.31
2022-09-23T21:55:16.164Z,66.21
2022-09-23T21:57:56.431Z,66.01
2022-09-23T22:00:29.054Z,65.87
2022-09-23T22:05:00.791Z,66.10
2022-09-23T22:06:30.705Z,66.15
2022-09-23T22:09:09.171Z,66.01
2022-09-23T22:12:09.287Z,66.12
2022-09-23T22:14:46.311Z,65.98
2022-09-23T22:17:28.879Z,65.84
2022-09-23T22:20:05.757Z,65.77
2022-09-23T22:22:41.383Z,65.87
2022-09-23T22:25:26.372Z,65.89
2022-09-23T22:28:18.313Z,65.91
2022-09-23T22:31:31.226Z,65.96
2022-09-23T22:34:02.834Z,65.77
2022-09-23T22:36:48.782Z,65.79
2022-09-23T22:39:29.498Z,65.79
2022-09-23T22:42:17.660Z,65.93
2022-09-23T22:44:53.826Z,65.90
2022-09-23T22:47:36.326Z,65.71
2022-09-23T22:50:15.641Z,65.64
2022-09-23T22:52:50.143Z,65.51
2022-09-23T22:55:38.291Z,65.55
2022-09-23T22:58:32.387Z,65.49
2022-09-23T23:01:26.691Z,65.29
2022-09-23T23:03:59.489Z,65.29
2022-09-23T23:06:42.834Z,65.39
2022-09-23T23:09:21.104Z,65.14
2022-09-23T23:11:56.916Z,65.12
2022-09-23T23:14:33.714Z,65.16
2022-09-23T23:17:24.598Z,65.20
2022-09-23T23:20:10.252Z,65.16
2022-09-23T23:22:53.633Z,65.18
2022-09-23T23:25:37.359Z,65.22
2022-09-23T23:31:32.716Z,65.39
2022-09-23T23:34:05.406Z,65.53
2022-09-23T23:37:01.053Z,65.62
2022-09-23T23:39:42.506Z,65.41
2022-09-23T23:42:37.996Z,65.33
2022-09-23T23:45:29.741Z,65.36
2022-09-23T23:48:20.753Z,65.55
2022-09-23T23:51:25.479Z,65.66
2022-09-23T23:54:13.064Z,65.67
2022-09-23T23:56:54.732Z,65.54
2022-09-23T23:59:28.723Z,65.38
